Possum Fork, Arkansas
Current Conditions -  °F | °C
As of 2:53 AM on Friday 24 Oct 2014 (Local Time) from KGLH Reporting Station
Clear Clear  
Wind Chill: 50°   Ceiling: Unl
Heat Index: 50°   Visibility: 10mi
Dew Point: 47°   Wind: 0mph
Humidity: 89%   Direction: NA
Pressure: 30.13"   Gusts: NA
Location:  33.7652°N, 91.2745°W
Report Text: KGLH 240753Z AUTO 00000KT 10SM CLR 10/08 A3013 RMK AO2 SLP211 T01000083
Loading
Personal Weather Stations






























Interactive Weather Map
Tropical Storm Tracking
New forecast layout! Learn more

10-Day Weather Forecast

Advertisements
Track Severe Weather on mobile